Last 30 Days

Kelseyville (Clark Drive)

Daily Data | America/Los_Angeles
as of 6/14/24 6:10 AM PDT
Date Daily Max Temp (°F) Time of Max Temp Daily Min Temp (°F) Time of Min Temp Hrs <= 32F (hrs) Hrs <= 28F (hrs) Hrs 70-85F (hrs) Hrs > 95F (hrs) Powdery Mildew Stress (pts) GDDs (DL) GDDs (Mx/Mn) Seas GDDs (DL) Seas GDDs (Smpl) Chilling <=45F (hrs) Chill Hrs 32-45F (hrs) Utah Chilling (Units) Degree Hrs (hrs) MinBV Day (V) Daily Rain (In) Month Precip (In) Season Precip (In)
6/13/24 93.0 1353 48.3 0543 0.0 0.0 2.66 0.00 0 21.8 20.6 894 786 0.0 0.0 0.0 258.9 12.7 0.00 0.00 29.27
6/12/24 97.5 1420 50.3 0515 0.0 0.0 2.46 2.68 10 23.5 23.9 873 766 0.0 0.0 0.0 295.0 12.7 0.00 0.00 29.27
6/11/24 98.9 1518 52.4 0530 0.0 0.0 2.62 3.55 20 25.3 25.7 849 742 0.0 0.0 0.0 311.1 12.8 0.00 0.00 29.27
6/10/24 95.9 1524 50.5 0529 0.0 0.0 2.50 0.28 30 23.7 23.2 824 716 0.0 0.0 -14.5 289.6 12.7 0.00 0.00 29.27
6/9/24 89.9 1645 50.9 0554 0.0 0.0 4.09 0.00 40 20.7 20.4 800 693 0.0 0.0 0.0 210.4 12.8 0.00 0.00 29.27
6/8/24 88.9 1415 54.9 0538 0.0 0.0 4.48 0.00 50 21.7 21.9 779 672 0.0 0.0 -16.5 201.8 12.7 0.00 0.00 29.27
6/7/24 97.4 1409 54.9 0524 0.0 0.0 2.80 1.61 60 25.5 26.2 758 650 0.0 0.0 -18.0 296.5 12.8 0.00 0.00 29.27
6/6/24 99.7 1541 54.4 0551 0.0 0.0 2.50 5.21 70 27.0 27.0 732 624 0.0 0.0 -17.0 333.9 12.8 0.00 0.00 29.27
6/5/24 98.2 1614 51.3 0603 0.0 0.0 2.85 2.64 80 24.8 24.7 705 597 0.0 0.0 -15.0 301.3 12.8 0.00 0.00 29.27
6/4/24 92.3 1510 45.8 0556 0.0 0.0 3.53 0.00 90 21.1 19.0 680 572 0.0 0.0 -16.0 246.9 12.8 0.00 0.00 29.27
6/3/24 76.2 1546 47.7 0051 0.0 0.0 6.53 0.00 100 14.4 12.0 659 553 0.0 0.0 1.0 66.3 12.8 0.00 0.00 29.27
6/2/24 83.1 1443 46.4 0437 0.0 0.0 10.63 0.00 100 17.1 14.8 645 542 0.0 0.0 -15.0 142.6 12.7 0.00 0.00 29.27
6/1/24 84.3 1338 45.4 0602 0.0 0.0 10.36 0.00 100 15.4 14.9 628 527 0.0 0.0 0.0 133.6 12.8 0.00 0.00 29.27
5/31/24 91.9 1450 46.4 0616 0.0 0.0 2.68 0.00 80 19.7 19.1 612 512 0.0 0.0 0.0 229.7 12.8 0.00 0.73 29.27
5/30/24 92.9 1822 40.6 0525 0.0 0.0 4.12 0.00 90 17.8 16.7 592 493 3.9 3.9 0.5 199.7 12.8 0.00 0.73 29.27
5/29/24 82.7 1642 39.7 0550 0.0 0.0 8.77 0.00 100 13.1 11.2 575 476 3.7 3.7 1.0 115.2 12.8 0.00 0.73 29.27
5/28/24 83.2 1329 44.6 0555 0.0 0.0 10.76 0.00 100 15.6 13.9 562 465 0.4 0.4 0.5 140.3 12.8 0.00 0.73 29.27
5/27/24 86.5 1519 43.3 0540 0.0 0.0 5.25 0.00 90 16.8 14.9 546 451 2.2 2.2 0.0 168.7 12.8 0.00 0.73 29.27
5/26/24 81.7 1617 39.8 0556 0.0 0.0 9.30 0.00 100 13.3 10.8 529 436 4.9 4.9 1.0 114.8 12.8 0.00 0.73 29.27
5/25/24 77.0 1623 39.7 0550 0.0 0.0 5.58 0.00 90 9.8 8.4 516 425 3.1 3.1 2.0 52.5 12.8 0.00 0.73 29.27
5/24/24 78.2 1505 40.2 0459 0.0 0.0 6.55 0.00 100 10.7 9.2 506 417 4.7 4.7 1.5 70.5 12.8 0.00 0.73 29.27
5/23/24 80.0 1458 36.5 0540 0.0 0.0 7.59 0.00 100 11.6 8.2 495 408 5.9 5.9 1.0 85.1 12.8 0.00 0.73 29.27
5/22/24 79.0 1343 43.0 0611 0.0 0.0 9.05 0.00 100 12.7 11.0 484 399 1.7 1.7 2.0 99.6 12.8 0.00 0.73 29.27
5/21/24 84.6 1637 38.5 0512 0.0 0.0 10.32 0.00 100 14.1 11.5 471 388 5.5 5.5 1.5 140.2 12.8 0.00 0.73 29.27
5/20/24 79.7 1634 38.8 0609 0.0 0.0 8.62 0.00 100 11.7 9.3 457 377 6.1 6.1 2.0 93.7 12.8 0.00 0.73 29.27
5/19/24 79.1 1421 40.7 0600 0.0 0.0 7.61 0.00 90 11.5 9.9 445 368 3.8 3.8 2.5 87.4 12.8 0.00 0.73 29.27
5/18/24 83.9 1308 48.4 0601 0.0 0.0 10.49 0.00 70 16.4 16.2 434 358 0.0 0.0 0.5 145.5 12.8 0.00 0.73 29.27
5/17/24 86.7 1616 47.4 0616 0.0 0.0 4.94 0.00 50 17.2 17.0 417 342 0.0 0.0 0.0 173.6 12.8 0.00 0.73 29.27
5/16/24 85.2 1319 47.8 0528 0.0 0.0 11.09 0.00 60 17.0 16.5 400 324 0.0 0.0 0.5 167.7 12.8 0.00 0.73 29.27
5/15/24 92.2 1425 47.8 0634 0.0 0.0 3.39 0.00 40 20.2 20.0 383 308 0.0 0.0 0.0 233.7 12.8 0.00 0.73 29.27
Max 99.7 - 54.9 - 0.0 0.0 11.09 5.21 - 27.0 27.0 - - 6.1 6.1 2.5 333.9 12.8 0.00 0.73 29.27
Avg - - - - 0.0 0.0 6.14 0.53 - 17.7 16.6 - - 1.5 1.5 -3.2 - - - - -
Min 76.2 - 36.5 - 0.0 0.0 2.46 0.00 - 9.8 8.2 - - 0.0 0.0 -18.0 52.5 12.7 0.00 0.00 29.27
Total - - - - 0.0 0.0 184.11 15.98 - 531.7 498.1 - - 46.0 46.0 -94.5 - - - - -